sensor_id;sensor_type;location;lat;lon;timestamp;P1;durP1;ratioP1;P2;durP2;ratioP2
73840;SDS011;62183;49.006;12.102;2022-08-24T00:01:27;8.17;;;7.47;;
73840;SDS011;62183;49.006;12.102;2022-08-24T00:03:52;8.23;;;7.53;;
73840;SDS011;62183;49.006;12.102;2022-08-24T00:06:18;8.27;;;7.45;;
73840;SDS011;62183;49.006;12.102;2022-08-24T00:08:45;8.35;;;7.43;;
73840;SDS011;62183;49.006;12.102;2022-08-24T00:11:10;8.50;;;7.70;;
73840;SDS011;62183;49.006;12.102;2022-08-24T00:13:36;8.57;;;7.60;;
73840;SDS011;62183;49.006;12.102;2022-08-24T00:16:01;8.18;;;7.47;;
73840;SDS011;62183;49.006;12.102;2022-08-24T00:18:26;8.20;;;7.50;;
73840;SDS011;62183;49.006;12.102;2022-08-24T00:20:52;8.50;;;7.80;;
73840;SDS011;62183;49.006;12.102;2022-08-24T00:23:17;8.20;;;7.50;;
73840;SDS011;62183;49.006;12.102;2022-08-24T00:25:42;8.57;;;7.80;;
73840;SDS011;62183;49.006;12.102;2022-08-24T00:28:07;9.30;;;8.52;;
73840;SDS011;62183;49.006;12.102;2022-08-24T00:30:33;8.90;;;8.20;;
73840;SDS011;62183;49.006;12.102;2022-08-24T00:32:58;8.73;;;7.93;;
73840;SDS011;62183;49.006;12.102;2022-08-24T00:35:23;10.97;;;9.73;;
73840;SDS011;62183;49.006;12.102;2022-08-24T00:37:49;9.00;;;8.10;;
73840;SDS011;62183;49.006;12.102;2022-08-24T00:40:26;10.25;;;8.18;;
73840;SDS011;62183;49.006;12.102;2022-08-24T00:42:52;9.23;;;8.32;;
73840;SDS011;62183;49.006;12.102;2022-08-24T00:45:18;9.70;;;8.70;;
73840;SDS011;62183;49.006;12.102;2022-08-24T00:47:48;9.48;;;8.23;;
73840;SDS011;62183;49.006;12.102;2022-08-24T00:50:18;9.93;;;9.02;;
73840;SDS011;62183;49.006;12.102;2022-08-24T00:52:45;9.48;;;8.57;;
73840;SDS011;62183;49.006;12.102;2022-08-24T00:55:17;8.45;;;7.65;;
73840;SDS011;62183;49.006;12.102;2022-08-24T00:57:44;8.90;;;8.10;;
73840;SDS011;62183;49.006;12.102;2022-08-24T01:00:16;8.38;;;7.68;;
73840;SDS011;62183;49.006;12.102;2022-08-24T01:02:43;8.90;;;8.10;;
73840;SDS011;62183;49.006;12.102;2022-08-24T01:05:09;8.45;;;7.75;;
73840;SDS011;62183;49.006;12.102;2022-08-24T01:07:35;9.13;;;8.32;;
73840;SDS011;62183;49.006;12.102;2022-08-24T01:10:03;9.30;;;8.15;;
73840;SDS011;62183;49.006;12.102;2022-08-24T01:12:29;8.60;;;7.78;;
73840;SDS011;62183;49.006;12.102;2022-08-24T01:14:56;9.10;;;8.30;;
73840;SDS011;62183;49.006;12.102;2022-08-24T01:17:22;8.80;;;8.00;;
73840;SDS011;62183;49.006;12.102;2022-08-24T01:19:49;9.20;;;8.30;;
73840;SDS011;62183;49.006;12.102;2022-08-24T01:24:59;8.60;;;7.80;;
73840;SDS011;62183;49.006;12.102;2022-08-24T01:27:24;7.97;;;7.28;;
73840;SDS011;62183;49.006;12.102;2022-08-24T01:29:49;8.88;;;7.70;;
73840;SDS011;62183;49.006;12.102;2022-08-24T01:32:15;8.15;;;7.45;;
73840;SDS011;62183;49.006;12.102;2022-08-24T01:34:42;8.10;;;7.30;;
73840;SDS011;62183;49.006;12.102;2022-08-24T01:37:09;8.57;;;7.87;;
73840;SDS011;62183;49.006;12.102;2022-08-24T01:39:38;8.43;;;7.63;;
73840;SDS011;62183;49.006;12.102;2022-08-24T01:42:04;9.20;;;8.05;;
73840;SDS011;62183;49.006;12.102;2022-08-24T01:44:30;9.43;;;8.53;;
73840;SDS011;62183;49.006;12.102;2022-08-24T01:46:55;9.32;;;8.40;;
73840;SDS011;62183;49.006;12.102;2022-08-24T01:49:23;9.10;;;8.30;;
73840;SDS011;62183;49.006;12.102;2022-08-24T01:51:48;8.07;;;7.47;;
73840;SDS011;62183;49.006;12.102;2022-08-24T01:54:13;9.03;;;8.33;;
73840;SDS011;62183;49.006;12.102;2022-08-24T01:56:39;8.38;;;7.63;;
73840;SDS011;62183;49.006;12.102;2022-08-24T01:59:04;9.35;;;8.48;;
73840;SDS011;62183;49.006;12.102;2022-08-24T02:01:31;8.88;;;8.07;;
73840;SDS011;62183;49.006;12.102;2022-08-24T02:03:57;9.23;;;8.43;;
73840;SDS011;62183;49.006;12.102;2022-08-24T02:06:24;9.15;;;8.32;;
73840;SDS011;62183;49.006;12.102;2022-08-24T02:08:49;9.18;;;8.38;;
73840;SDS011;62183;49.006;12.102;2022-08-24T02:11:15;10.07;;;9.07;;
73840;SDS011;62183;49.006;12.102;2022-08-24T02:13:40;9.67;;;8.70;;
73840;SDS011;62183;49.006;12.102;2022-08-24T02:16:06;9.73;;;8.80;;
73840;SDS011;62183;49.006;12.102;2022-08-24T02:18:32;12.50;;;8.98;;
73840;SDS011;62183;49.006;12.102;2022-08-24T02:20:58;11.23;;;9.07;;
73840;SDS011;62183;49.006;12.102;2022-08-24T02:23:23;9.90;;;8.93;;
73840;SDS011;62183;49.006;12.102;2022-08-24T02:25:48;10.20;;;8.70;;
73840;SDS011;62183;49.006;12.102;2022-08-24T02:28:13;9.97;;;8.97;;
73840;SDS011;62183;49.006;12.102;2022-08-24T02:30:39;13.07;;;9.03;;
73840;SDS011;62183;49.006;12.102;2022-08-24T02:33:05;10.32;;;9.32;;
73840;SDS011;62183;49.006;12.102;2022-08-24T02:35:30;10.38;;;9.38;;
73840;SDS011;62183;49.006;12.102;2022-08-24T02:37:55;10.82;;;9.52;;
73840;SDS011;62183;49.006;12.102;2022-08-24T02:40:21;10.60;;;9.18;;
73840;SDS011;62183;49.006;12.102;2022-08-24T02:42:46;9.27;;;8.38;;
73840;SDS011;62183;49.006;12.102;2022-08-24T02:45:11;9.57;;;8.57;;
73840;SDS011;62183;49.006;12.102;2022-08-24T02:47:36;9.70;;;8.80;;
73840;SDS011;62183;49.006;12.102;2022-08-24T02:50:03;11.17;;;8.67;;
73840;SDS011;62183;49.006;12.102;2022-08-24T02:52:28;10.40;;;8.73;;
73840;SDS011;62183;49.006;12.102;2022-08-24T02:54:53;10.07;;;9.07;;
73840;SDS011;62183;49.006;12.102;2022-08-24T02:57:19;10.25;;;9.25;;
73840;SDS011;62183;49.006;12.102;2022-08-24T02:59:44;9.33;;;8.60;;
73840;SDS011;62183;49.006;12.102;2022-08-24T03:02:09;9.40;;;8.50;;
73840;SDS011;62183;49.006;12.102;2022-08-24T03:04:34;8.97;;;8.07;;
73840;SDS011;62183;49.006;12.102;2022-08-24T03:06:59;8.57;;;7.77;;
73840;SDS011;62183;49.006;12.102;2022-08-24T03:09:25;8.77;;;7.97;;
73840;SDS011;62183;49.006;12.102;2022-08-24T03:11:50;8.33;;;7.63;;
73840;SDS011;62183;49.006;12.102;2022-08-24T03:14:15;8.63;;;7.83;;
73840;SDS011;62183;49.006;12.102;2022-08-24T03:16:40;8.80;;;8.00;;
73840;SDS011;62183;49.006;12.102;2022-08-24T03:19:06;9.20;;;8.30;;
73840;SDS011;62183;49.006;12.102;2022-08-24T03:21:31;8.93;;;8.03;;
73840;SDS011;62183;49.006;12.102;2022-08-24T03:23:56;8.80;;;8.00;;
73840;SDS011;62183;49.006;12.102;2022-08-24T03:26:21;9.20;;;8.30;;
73840;SDS011;62183;49.006;12.102;2022-08-24T03:28:46;8.60;;;7.83;;
73840;SDS011;62183;49.006;12.102;2022-08-24T03:31:12;9.63;;;8.80;;
73840;SDS011;62183;49.006;12.102;2022-08-24T03:33:37;11.43;;;9.57;;
73840;SDS011;62183;49.006;12.102;2022-08-24T03:36:02;9.00;;;8.20;;
73840;SDS011;62183;49.006;12.102;2022-08-24T03:38:28;9.73;;;8.82;;
73840;SDS011;62183;49.006;12.102;2022-08-24T03:40:53;9.65;;;8.75;;
73840;SDS011;62183;49.006;12.102;2022-08-24T03:43:18;9.27;;;8.40;;
73840;SDS011;62183;49.006;12.102;2022-08-24T03:45:43;9.00;;;8.10;;
73840;SDS011;62183;49.006;12.102;2022-08-24T03:48:09;9.43;;;8.53;;
73840;SDS011;62183;49.006;12.102;2022-08-24T03:50:34;9.50;;;8.53;;
73840;SDS011;62183;49.006;12.102;2022-08-24T03:52:59;9.57;;;8.67;;
73840;SDS011;62183;49.006;12.102;2022-08-24T03:55:24;9.60;;;8.70;;
73840;SDS011;62183;49.006;12.102;2022-08-24T03:57:49;10.03;;;8.50;;
73840;SDS011;62183;49.006;12.102;2022-08-24T04:00:15;9.40;;;8.43;;
73840;SDS011;62183;49.006;12.102;2022-08-24T04:02:40;9.18;;;8.27;;
73840;SDS011;62183;49.006;12.102;2022-08-24T04:05:05;9.52;;;8.38;;
73840;SDS011;62183;49.006;12.102;2022-08-24T04:07:31;9.43;;;8.52;;
73840;SDS011;62183;49.006;12.102;2022-08-24T04:09:56;9.33;;;8.43;;
73840;SDS011;62183;49.006;12.102;2022-08-24T04:12:21;8.90;;;8.10;;
73840;SDS011;62183;49.006;12.102;2022-08-24T04:14:46;8.80;;;7.90;;
73840;SDS011;62183;49.006;12.102;2022-08-24T04:17:11;9.87;;;8.97;;
73840;SDS011;62183;49.006;12.102;2022-08-24T04:19:37;9.90;;;8.90;;
73840;SDS011;62183;49.006;12.102;2022-08-24T04:22:02;9.17;;;8.27;;
73840;SDS011;62183;49.006;12.102;2022-08-24T04:24:27;10.05;;;9.02;;
73840;SDS011;62183;49.006;12.102;2022-08-24T04:26:52;10.20;;;9.07;;
73840;SDS011;62183;49.006;12.102;2022-08-24T04:29:18;9.33;;;8.30;;
73840;SDS011;62183;49.006;12.102;2022-08-24T04:31:43;9.98;;;8.60;;
73840;SDS011;62183;49.006;12.102;2022-08-24T04:34:09;9.63;;;8.73;;
73840;SDS011;62183;49.006;12.102;2022-08-24T04:36:34;9.90;;;8.88;;
73840;SDS011;62183;49.006;12.102;2022-08-24T04:39:00;12.30;;;9.57;;
73840;SDS011;62183;49.006;12.102;2022-08-24T04:41:25;10.47;;;9.47;;
73840;SDS011;62183;49.006;12.102;2022-08-24T04:43:50;10.45;;;9.45;;
73840;SDS011;62183;49.006;12.102;2022-08-24T04:46:16;10.63;;;9.53;;
73840;SDS011;62183;49.006;12.102;2022-08-24T04:48:42;10.18;;;9.27;;
73840;SDS011;62183;49.006;12.102;2022-08-24T04:51:09;9.93;;;9.00;;
73840;SDS011;62183;49.006;12.102;2022-08-24T04:53:35;10.48;;;9.48;;
73840;SDS011;62183;49.006;12.102;2022-08-24T04:56:00;10.47;;;9.43;;
73840;SDS011;62183;49.006;12.102;2022-08-24T04:58:26;10.25;;;9.10;;
73840;SDS011;62183;49.006;12.102;2022-08-24T05:00:51;10.55;;;9.40;;
73840;SDS011;62183;49.006;12.102;2022-08-24T05:03:16;10.23;;;9.23;;
73840;SDS011;62183;49.006;12.102;2022-08-24T05:05:43;11.80;;;9.40;;
73840;SDS011;62183;49.006;12.102;2022-08-24T05:08:09;9.93;;;9.18;;
73840;SDS011;62183;49.006;12.102;2022-08-24T05:10:36;10.35;;;9.45;;
73840;SDS011;62183;49.006;12.102;2022-08-24T05:13:01;11.05;;;9.95;;
73840;SDS011;62183;49.006;12.102;2022-08-24T05:15:26;10.63;;;9.63;;
73840;SDS011;62183;49.006;12.102;2022-08-24T05:17:51;10.90;;;9.87;;
73840;SDS011;62183;49.006;12.102;2022-08-24T05:20:17;10.57;;;9.60;;
73840;SDS011;62183;49.006;12.102;2022-08-24T05:22:42;10.55;;;9.45;;
73840;SDS011;62183;49.006;12.102;2022-08-24T05:25:07;11.33;;;9.97;;
73840;SDS011;62183;49.006;12.102;2022-08-24T05:27:33;10.40;;;9.40;;
73840;SDS011;62183;49.006;12.102;2022-08-24T05:29:58;10.07;;;9.02;;
73840;SDS011;62183;49.006;12.102;2022-08-24T05:32:24;10.23;;;9.32;;
73840;SDS011;62183;49.006;12.102;2022-08-24T05:34:49;11.07;;;9.80;;
73840;SDS011;62183;49.006;12.102;2022-08-24T05:37:14;12.30;;;10.43;;
73840;SDS011;62183;49.006;12.102;2022-08-24T05:39:39;12.47;;;11.23;;
73840;SDS011;62183;49.006;12.102;2022-08-24T05:42:05;11.43;;;10.43;;
73840;SDS011;62183;49.006;12.102;2022-08-24T05:44:30;11.70;;;10.50;;
73840;SDS011;62183;49.006;12.102;2022-08-24T05:46:55;10.07;;;9.13;;
73840;SDS011;62183;49.006;12.102;2022-08-24T05:49:21;10.13;;;9.20;;
73840;SDS011;62183;49.006;12.102;2022-08-24T05:51:46;11.40;;;10.40;;
73840;SDS011;62183;49.006;12.102;2022-08-24T05:54:11;12.13;;;11.03;;
73840;SDS011;62183;49.006;12.102;2022-08-24T05:56:36;11.38;;;10.30;;
73840;SDS011;62183;49.006;12.102;2022-08-24T05:59:02;11.27;;;9.93;;
73840;SDS011;62183;49.006;12.102;2022-08-24T06:01:27;11.65;;;10.70;;
73840;SDS011;62183;49.006;12.102;2022-08-24T06:03:53;11.27;;;10.17;;
73840;SDS011;62183;49.006;12.102;2022-08-24T06:06:19;11.82;;;10.82;;
73840;SDS011;62183;49.006;12.102;2022-08-24T06:08:46;12.05;;;10.85;;
73840;SDS011;62183;49.006;12.102;2022-08-24T06:11:18;11.38;;;10.48;;
73840;SDS011;62183;49.006;12.102;2022-08-24T06:13:44;12.82;;;11.73;;
73840;SDS011;62183;49.006;12.102;2022-08-24T06:16:10;12.83;;;11.67;;
73840;SDS011;62183;49.006;12.102;2022-08-24T06:18:36;12.32;;;11.25;;
73840;SDS011;62183;49.006;12.102;2022-08-24T06:21:03;11.60;;;10.70;;
73840;SDS011;62183;49.006;12.102;2022-08-24T06:23:28;12.40;;;11.40;;
73840;SDS011;62183;49.006;12.102;2022-08-24T06:25:54;13.63;;;12.53;;
73840;SDS011;62183;49.006;12.102;2022-08-24T06:28:21;13.25;;;12.13;;
73840;SDS011;62183;49.006;12.102;2022-08-24T06:30:46;13.50;;;12.50;;
73840;SDS011;62183;49.006;12.102;2022-08-24T06:33:11;13.93;;;12.93;;
73840;SDS011;62183;49.006;12.102;2022-08-24T06:35:36;13.90;;;12.90;;
73840;SDS011;62183;49.006;12.102;2022-08-24T06:38:02;14.53;;;13.40;;
73840;SDS011;62183;49.006;12.102;2022-08-24T06:40:27;15.20;;;14.20;;
73840;SDS011;62183;49.006;12.102;2022-08-24T06:42:52;15.63;;;14.43;;
73840;SDS011;62183;49.006;12.102;2022-08-24T06:45:17;16.10;;;15.10;;
73840;SDS011;62183;49.006;12.102;2022-08-24T06:47:43;15.67;;;14.67;;
73840;SDS011;62183;49.006;12.102;2022-08-24T06:50:08;16.23;;;15.13;;
73840;SDS011;62183;49.006;12.102;2022-08-24T06:52:34;16.17;;;15.17;;
73840;SDS011;62183;49.006;12.102;2022-08-24T06:54:59;18.35;;;17.05;;
73840;SDS011;62183;49.006;12.102;2022-08-24T06:57:25;17.75;;;16.65;;
73840;SDS011;62183;49.006;12.102;2022-08-24T06:59:50;18.60;;;17.15;;
73840;SDS011;62183;49.006;12.102;2022-08-24T07:02:15;17.60;;;16.53;;
73840;SDS011;62183;49.006;12.102;2022-08-24T07:04:40;18.40;;;17.30;;
73840;SDS011;62183;49.006;12.102;2022-08-24T07:07:05;19.23;;;18.03;;
73840;SDS011;62183;49.006;12.102;2022-08-24T07:09:31;19.47;;;18.27;;
73840;SDS011;62183;49.006;12.102;2022-08-24T07:11:56;18.33;;;17.13;;
73840;SDS011;62183;49.006;12.102;2022-08-24T07:14:21;19.13;;;17.73;;
73840;SDS011;62183;49.006;12.102;2022-08-24T07:16:46;18.80;;;17.63;;
73840;SDS011;62183;49.006;12.102;2022-08-24T07:19:12;18.55;;;17.45;;
73840;SDS011;62183;49.006;12.102;2022-08-24T07:21:37;19.10;;;17.83;;
73840;SDS011;62183;49.006;12.102;2022-08-24T07:24:02;18.80;;;17.60;;
73840;SDS011;62183;49.006;12.102;2022-08-24T07:26:28;18.25;;;17.25;;
73840;SDS011;62183;49.006;12.102;2022-08-24T07:28:59;18.60;;;17.40;;
73840;SDS011;62183;49.006;12.102;2022-08-24T07:31:24;18.23;;;17.13;;
73840;SDS011;62183;49.006;12.102;2022-08-24T07:33:49;17.93;;;16.57;;
73840;SDS011;62183;49.006;12.102;2022-08-24T07:36:14;18.50;;;17.33;;
73840;SDS011;62183;49.006;12.102;2022-08-24T07:38:39;18.43;;;17.27;;
73840;SDS011;62183;49.006;12.102;2022-08-24T07:41:05;18.97;;;17.40;;
73840;SDS011;62183;49.006;12.102;2022-08-24T07:43:30;20.03;;;18.73;;
73840;SDS011;62183;49.006;12.102;2022-08-24T07:45:55;19.07;;;17.90;;
73840;SDS011;62183;49.006;12.102;2022-08-24T07:48:20;18.60;;;17.40;;
73840;SDS011;62183;49.006;12.102;2022-08-24T07:50:46;17.77;;;16.70;;
73840;SDS011;62183;49.006;12.102;2022-08-24T07:53:11;18.30;;;17.20;;
73840;SDS011;62183;49.006;12.102;2022-08-24T07:55:36;19.00;;;17.57;;
73840;SDS011;62183;49.006;12.102;2022-08-24T07:58:01;18.03;;;16.93;;
73840;SDS011;62183;49.006;12.102;2022-08-24T08:00:27;17.17;;;16.20;;
73840;SDS011;62183;49.006;12.102;2022-08-24T08:02:52;17.83;;;16.70;;
73840;SDS011;62183;49.006;12.102;2022-08-24T08:05:18;17.83;;;16.67;;
73840;SDS011;62183;49.006;12.102;2022-08-24T08:07:44;18.00;;;16.58;;
73840;SDS011;62183;49.006;12.102;2022-08-24T08:10:10;17.20;;;16.23;;
73840;SDS011;62183;49.006;12.102;2022-08-24T08:12:35;17.77;;;16.48;;
73840;SDS011;62183;49.006;12.102;2022-08-24T08:15:01;18.37;;;17.00;;
73840;SDS011;62183;49.006;12.102;2022-08-24T08:17:26;17.33;;;16.42;;
73840;SDS011;62183;49.006;12.102;2022-08-24T08:19:51;17.10;;;16.10;;
73840;SDS011;62183;49.006;12.102;2022-08-24T08:22:16;18.60;;;17.17;;
73840;SDS011;62183;49.006;12.102;2022-08-24T08:24:42;17.63;;;16.52;;
73840;SDS011;62183;49.006;12.102;2022-08-24T08:27:07;18.97;;;17.57;;
73840;SDS011;62183;49.006;12.102;2022-08-24T08:29:32;18.57;;;17.13;;
73840;SDS011;62183;49.006;12.102;2022-08-24T08:31:58;17.90;;;16.80;;
73840;SDS011;62183;49.006;12.102;2022-08-24T08:34:23;17.50;;;16.50;;
73840;SDS011;62183;49.006;12.102;2022-08-24T08:36:48;17.40;;;16.30;;
73840;SDS011;62183;49.006;12.102;2022-08-24T08:39:14;16.90;;;15.90;;
73840;SDS011;62183;49.006;12.102;2022-08-24T08:52:12;15.00;;;14.20;;
73840;SDS011;62183;49.006;12.102;2022-08-24T08:54:48;15.45;;;14.55;;
73840;SDS011;62183;49.006;12.102;2022-08-24T09:15:42;14.48;;;13.68;;
73840;SDS011;62183;49.006;12.102;2022-08-24T09:18:15;14.90;;;13.93;;
73840;SDS011;62183;49.006;12.102;2022-08-24T09:26:55;15.05;;;14.25;;
73840;SDS011;62183;49.006;12.102;2022-08-24T09:34:17;15.20;;;14.30;;
73840;SDS011;62183;49.006;12.102;2022-08-24T09:39:36;14.88;;;14.07;;
73840;SDS011;62183;49.006;12.102;2022-08-24T09:44:50;15.00;;;14.23;;
73840;SDS011;62183;49.006;12.102;2022-08-24T09:47:32;14.90;;;14.00;;
73840;SDS011;62183;49.006;12.102;2022-08-24T10:00:56;14.38;;;13.57;;
73840;SDS011;62183;49.006;12.102;2022-08-24T10:06:12;14.70;;;13.90;;
73840;SDS011;62183;49.006;12.102;2022-08-24T10:08:54;15.07;;;14.18;;
73840;SDS011;62183;49.006;12.102;2022-08-24T10:16:37;15.27;;;14.48;;
73840;SDS011;62183;49.006;12.102;2022-08-24T10:19:31;15.15;;;14.35;;
73840;SDS011;62183;49.006;12.102;2022-08-24T10:22:07;15.10;;;14.20;;
73840;SDS011;62183;49.006;12.102;2022-08-24T10:27:41;14.98;;;14.18;;
73840;SDS011;62183;49.006;12.102;2022-08-24T10:33:03;15.10;;;14.20;;
73840;SDS011;62183;49.006;12.102;2022-08-24T10:35:46;15.20;;;14.40;;
73840;SDS011;62183;49.006;12.102;2022-08-24T10:40:59;14.95;;;14.15;;
73840;SDS011;62183;49.006;12.102;2022-08-24T10:48:31;14.65;;;13.75;;
73840;SDS011;62183;49.006;12.102;2022-08-24T10:53:35;13.98;;;13.20;;
73840;SDS011;62183;49.006;12.102;2022-08-24T10:56:10;14.23;;;13.43;;
73840;SDS011;62183;49.006;12.102;2022-08-24T11:01:15;14.85;;;14.02;;
73840;SDS011;62183;49.006;12.102;2022-08-24T11:06:13;15.23;;;14.45;;
73840;SDS011;62183;49.006;12.102;2022-08-24T11:08:39;15.63;;;14.77;;
73840;SDS011;62183;49.006;12.102;2022-08-24T11:11:20;15.80;;;15.00;;
73840;SDS011;62183;49.006;12.102;2022-08-24T11:13:55;15.73;;;14.93;;
73840;SDS011;62183;49.006;12.102;2022-08-24T11:16:22;16.15;;;15.05;;
73840;SDS011;62183;49.006;12.102;2022-08-24T11:18:49;15.68;;;14.85;;
73840;SDS011;62183;49.006;12.102;2022-08-24T11:21:31;16.02;;;15.20;;
73840;SDS011;62183;49.006;12.102;2022-08-24T11:24:01;15.65;;;14.85;;
73840;SDS011;62183;49.006;12.102;2022-08-24T11:26:26;15.48;;;14.57;;
73840;SDS011;62183;49.006;12.102;2022-08-24T11:28:53;15.65;;;14.75;;
73840;SDS011;62183;49.006;12.102;2022-08-24T11:31:26;15.05;;;14.25;;
73840;SDS011;62183;49.006;12.102;2022-08-24T11:33:57;14.65;;;13.85;;
73840;SDS011;62183;49.006;12.102;2022-08-24T11:38:48;14.80;;;13.90;;
73840;SDS011;62183;49.006;12.102;2022-08-24T11:41:33;13.80;;;13.10;;
73840;SDS011;62183;49.006;12.102;2022-08-24T11:49:33;13.75;;;12.95;;
73840;SDS011;62183;49.006;12.102;2022-08-24T11:52:10;13.38;;;12.68;;
73840;SDS011;62183;49.006;12.102;2022-08-24T11:54:42;13.30;;;12.60;;
73840;SDS011;62183;49.006;12.102;2022-08-24T11:57:10;13.20;;;12.50;;
73840;SDS011;62183;49.006;12.102;2022-08-24T11:59:46;13.45;;;12.70;;
73840;SDS011;62183;49.006;12.102;2022-08-24T12:02:22;13.63;;;12.88;;
73840;SDS011;62183;49.006;12.102;2022-08-24T12:15:04;14.30;;;13.50;;
73840;SDS011;62183;49.006;12.102;2022-08-24T12:17:33;14.25;;;13.45;;
73840;SDS011;62183;49.006;12.102;2022-08-24T12:20:06;14.35;;;13.55;;
73840;SDS011;62183;49.006;12.102;2022-08-24T12:22:35;14.25;;;13.50;;
73840;SDS011;62183;49.006;12.102;2022-08-24T12:25:03;14.40;;;13.60;;
73840;SDS011;62183;49.006;12.102;2022-08-24T12:27:30;14.30;;;13.40;;
73840;SDS011;62183;49.006;12.102;2022-08-24T12:32:23;13.73;;;13.03;;
73840;SDS011;62183;49.006;12.102;2022-08-24T12:37:21;14.32;;;13.25;;
73840;SDS011;62183;49.006;12.102;2022-08-24T12:39:48;14.13;;;13.43;;
73840;SDS011;62183;49.006;12.102;2022-08-24T12:44:49;13.75;;;13.05;;
73840;SDS011;62183;49.006;12.102;2022-08-24T12:47:18;14.60;;;13.80;;
73840;SDS011;62183;49.006;12.102;2022-08-24T12:49:49;13.93;;;13.23;;
73840;SDS011;62183;49.006;12.102;2022-08-24T12:57:51;14.57;;;13.68;;
73840;SDS011;62183;49.006;12.102;2022-08-24T13:02:40;14.50;;;13.60;;
73840;SDS011;62183;49.006;12.102;2022-08-24T13:05:13;14.88;;;14.07;;
73840;SDS011;62183;49.006;12.102;2022-08-24T13:07:41;14.80;;;13.90;;
73840;SDS011;62183;49.006;12.102;2022-08-24T13:10:09;15.35;;;14.43;;
73840;SDS011;62183;49.006;12.102;2022-08-24T13:17:47;15.55;;;14.65;;
73840;SDS011;62183;49.006;12.102;2022-08-24T13:20:23;15.23;;;14.23;;
73840;SDS011;62183;49.006;12.102;2022-08-24T13:23:13;14.75;;;13.95;;
73840;SDS011;62183;49.006;12.102;2022-08-24T13:33:15;14.20;;;13.40;;
73840;SDS011;62183;49.006;12.102;2022-08-24T13:35:55;14.07;;;13.18;;
73840;SDS011;62183;49.006;12.102;2022-08-24T13:41:08;14.15;;;13.15;;
73840;SDS011;62183;49.006;12.102;2022-08-24T13:43:47;14.18;;;13.38;;
73840;SDS011;62183;49.006;12.102;2022-08-24T13:46:17;14.68;;;13.77;;
73840;SDS011;62183;49.006;12.102;2022-08-24T13:48:57;14.15;;;13.35;;
73840;SDS011;62183;49.006;12.102;2022-08-24T13:51:28;14.90;;;14.00;;
73840;SDS011;62183;49.006;12.102;2022-08-24T13:54:18;16.02;;;14.93;;
73840;SDS011;62183;49.006;12.102;2022-08-24T13:59:32;14.85;;;13.98;;
73840;SDS011;62183;49.006;12.102;2022-08-24T14:04:46;13.63;;;12.93;;
73840;SDS011;62183;49.006;12.102;2022-08-24T14:07:19;14.63;;;13.68;;
73840;SDS011;62183;49.006;12.102;2022-08-24T14:09:56;14.57;;;13.77;;
73840;SDS011;62183;49.006;12.102;2022-08-24T14:23:17;13.55;;;12.70;;
73840;SDS011;62183;49.006;12.102;2022-08-24T14:25:44;13.80;;;12.82;;
73840;SDS011;62183;49.006;12.102;2022-08-24T14:30:45;13.57;;;12.68;;
73840;SDS011;62183;49.006;12.102;2022-08-24T14:38:21;13.63;;;12.77;;
73840;SDS011;62183;49.006;12.102;2022-08-24T14:43:25;13.52;;;12.63;;
73840;SDS011;62183;49.006;12.102;2022-08-24T14:51:16;13.85;;;12.95;;
73840;SDS011;62183;49.006;12.102;2022-08-24T14:56:38;13.40;;;12.60;;
73840;SDS011;62183;49.006;12.102;2022-08-24T14:59:16;14.65;;;13.48;;
73840;SDS011;62183;49.006;12.102;2022-08-24T15:01:47;13.75;;;12.82;;
73840;SDS011;62183;49.006;12.102;2022-08-24T15:04:20;14.40;;;13.40;;
73840;SDS011;62183;49.006;12.102;2022-08-24T15:09:23;14.23;;;13.43;;
73840;SDS011;62183;49.006;12.102;2022-08-24T15:11:48;14.15;;;13.13;;
73840;SDS011;62183;49.006;12.102;2022-08-24T15:14:25;13.53;;;12.73;;
73840;SDS011;62183;49.006;12.102;2022-08-24T15:16:59;14.68;;;13.65;;
73840;SDS011;62183;49.006;12.102;2022-08-24T15:19:30;14.40;;;13.60;;
73840;SDS011;62183;49.006;12.102;2022-08-24T15:22:08;14.35;;;13.45;;
73840;SDS011;62183;49.006;12.102;2022-08-24T15:24:40;14.32;;;13.43;;
73840;SDS011;62183;49.006;12.102;2022-08-24T15:27:09;14.82;;;13.82;;
73840;SDS011;62183;49.006;12.102;2022-08-24T15:29:45;14.85;;;13.85;;
73840;SDS011;62183;49.006;12.102;2022-08-24T15:32:10;14.63;;;13.60;;
73840;SDS011;62183;49.006;12.102;2022-08-24T15:37:04;14.50;;;13.48;;
73840;SDS011;62183;49.006;12.102;2022-08-24T15:39:30;14.05;;;13.05;;
73840;SDS011;62183;49.006;12.102;2022-08-24T15:41:55;14.03;;;13.23;;
73840;SDS011;62183;49.006;12.102;2022-08-24T15:46:47;14.20;;;13.30;;
73840;SDS011;62183;49.006;12.102;2022-08-24T15:56:42;13.48;;;12.70;;
73840;SDS011;62183;49.006;12.102;2022-08-24T15:59:11;13.55;;;12.75;;
73840;SDS011;62183;49.006;12.102;2022-08-24T16:01:37;14.00;;;13.07;;
73840;SDS011;62183;49.006;12.102;2022-08-24T16:04:13;13.80;;;13.00;;
73840;SDS011;62183;49.006;12.102;2022-08-24T16:06:43;13.65;;;12.82;;
73840;SDS011;62183;49.006;12.102;2022-08-24T16:11:43;14.00;;;13.10;;
73840;SDS011;62183;49.006;12.102;2022-08-24T16:14:12;14.55;;;13.65;;
73840;SDS011;62183;49.006;12.102;2022-08-24T16:16:38;14.45;;;13.55;;
73840;SDS011;62183;49.006;12.102;2022-08-24T16:19:05;14.75;;;13.85;;
73840;SDS011;62183;49.006;12.102;2022-08-24T16:21:50;14.90;;;14.00;;
73840;SDS011;62183;49.006;12.102;2022-08-24T16:29:28;15.38;;;14.32;;
73840;SDS011;62183;49.006;12.102;2022-08-24T16:31:58;14.98;;;14.07;;
73840;SDS011;62183;49.006;12.102;2022-08-24T16:34:29;15.20;;;14.30;;
73840;SDS011;62183;49.006;12.102;2022-08-24T16:36:55;15.70;;;14.73;;
73840;SDS011;62183;49.006;12.102;2022-08-24T16:39:20;15.13;;;14.23;;
73840;SDS011;62183;49.006;12.102;2022-08-24T16:41:46;14.97;;;14.07;;
73840;SDS011;62183;49.006;12.102;2022-08-24T16:44:11;14.93;;;14.03;;
73840;SDS011;62183;49.006;12.102;2022-08-24T16:46:37;15.10;;;14.20;;
73840;SDS011;62183;49.006;12.102;2022-08-24T16:49:02;15.20;;;14.30;;
73840;SDS011;62183;49.006;12.102;2022-08-24T16:51:27;15.47;;;14.57;;
73840;SDS011;62183;49.006;12.102;2022-08-24T16:53:53;15.90;;;14.90;;
73840;SDS011;62183;49.006;12.102;2022-08-24T16:56:18;14.68;;;13.77;;
73840;SDS011;62183;49.006;12.102;2022-08-24T16:58:44;15.18;;;14.27;;
73840;SDS011;62183;49.006;12.102;2022-08-24T17:01:09;15.20;;;14.18;;
73840;SDS011;62183;49.006;12.102;2022-08-24T17:03:34;14.50;;;13.60;;
73840;SDS011;62183;49.006;12.102;2022-08-24T17:06:00;14.97;;;13.93;;
73840;SDS011;62183;49.006;12.102;2022-08-24T17:08:25;14.37;;;13.37;;
73840;SDS011;62183;49.006;12.102;2022-08-24T17:10:51;14.30;;;13.50;;
73840;SDS011;62183;49.006;12.102;2022-08-24T17:13:16;14.80;;;13.82;;
73840;SDS011;62183;49.006;12.102;2022-08-24T17:15:41;14.23;;;13.33;;
73840;SDS011;62183;49.006;12.102;2022-08-24T17:18:08;13.97;;;13.07;;
73840;SDS011;62183;49.006;12.102;2022-08-24T17:20:33;13.80;;;12.90;;
73840;SDS011;62183;49.006;12.102;2022-08-24T17:22:59;13.97;;;13.07;;
73840;SDS011;62183;49.006;12.102;2022-08-24T17:25:24;13.18;;;12.38;;
73840;SDS011;62183;49.006;12.102;2022-08-24T17:27:51;13.15;;;12.35;;
73840;SDS011;62183;49.006;12.102;2022-08-24T17:30:16;13.38;;;12.48;;
73840;SDS011;62183;49.006;12.102;2022-08-24T17:32:41;13.37;;;12.40;;
73840;SDS011;62183;49.006;12.102;2022-08-24T17:35:07;13.52;;;12.52;;